ittybiz.com alexa rank chart, ittybiz.com alexa rank daily changes

ittybiz.com alexa rank chart, ittybiz.com alexa rank daily changes

ittybiz.com
Actual rank:
615 130

RANK HISTORY

Date Rank Diff
2017/01/20 615 130 -9 735
2017/01/19 624 865 +226
2017/01/18 624 639 +4 807
2017/01/17 619 832 -17 653
2017/01/16 637 485 -14 705
2017/01/15 652 190 +7 326
2017/01/14 644 864 +9 495
2017/01/13 635 369 +24 872
2017/01/12 610 497 -27 215
2017/01/11 637 712 -318
2017/01/10 638 030 -13 959
2017/01/09 651 989 +9 749
2017/01/08 642 240 -34 823
2017/01/07 677 063 -16 683
2017/01/06 693 746 -27 000
2017/01/05 720 746 -2 879
2017/01/04 723 625 -54 952
2017/01/03 778 577 -1 537
2017/01/02 780 114 -7 088
2017/01/01 787 202 +7 564
2016/12/31 779 638 +770
2016/12/30 778 868 +41 213
2016/12/29 737 655 -42 873
2016/12/28 780 528 +104 022
2016/12/27 676 506 -71 586
2016/12/26 748 092 +29 848
2016/12/25 718 244 +45 799
2016/12/24 672 445 +57 049
2016/12/23 615 396 +48 748
2016/12/22 566 648 +18 604
2016/12/21 548 044 -1 684
2016/12/20 549 728 +22 929
2016/12/19 526 799 +41 305
2016/12/18 485 494 +29 525
2016/12/17 455 969 -783
2016/12/16 456 752 -8 196
2016/12/15 464 948 +1 251
2016/12/14 463 697 +3 804
2016/12/13 459 893 -12 076
2016/12/12 471 969 +5 532
2016/12/11 466 437 -3 121
2016/12/10 469 558 -8 661
2016/12/09 478 219 -7 913
2016/12/08 486 132 -6 784
2016/12/07 492 916 +10 975
2016/12/06 481 941 +3 737
2016/12/05 478 204 +17 898
2016/12/04 460 306 +18 970
2016/12/02 441 336 -99
2016/12/01 441 435 +4 135
2016/11/30 437 300 -28 695
2016/11/29 465 995 +6 217
2016/11/28 459 778 -27 737
2016/11/27 487 515 -5 377
2016/11/26 492 892 -4 661
2016/11/25 497 553 -28 214
2016/11/24 525 767 -56 946
2016/11/23 582 713

WIDGET FOR YOUR SITE

DOMAINS WITH THE NEAREST RANK

Domain Rank
thebeetlelab.com 615 125
retrade.eu 615 126
51h5.com 615 127
kinetic-revolution.com 615 128
com2day.net 615 129
ittybiz.com 615 130
millcitypress.net 615 131
asig.gov.al 615 132
vliz.be 615 133
gzjponline.com 615 134
thesistahcafe.com 615 135

DOMAINS WITH THE NEAREST RANK BY TLD .com

Domain Rank
instagramforsuccess.com 615 120
lvengine.com 615 123
thebeetlelab.com 615 125
51h5.com 615 127
kinetic-revolution.com 615 128
ittybiz.com 615 130
gzjponline.com 615 134
thesistahcafe.com 615 135
justrabbits.com 615 136
thriftyandchic.com 615 137
passionrepublic.com 615 138